sensor_id;sensor_type;location;lat;lon;timestamp;P1;durP1;ratioP1;P2;durP2;ratioP2
70545;SDS011;58098;51.680;5.134;2023-11-19T00:01:48;21.73;;;11.50;;
70545;SDS011;58098;51.680;5.134;2023-11-19T00:04:14;29.53;;;11.77;;
70545;SDS011;58098;51.680;5.134;2023-11-19T00:06:39;19.80;;;11.27;;
70545;SDS011;58098;51.680;5.134;2023-11-19T00:09:04;26.63;;;10.67;;
70545;SDS011;58098;51.680;5.134;2023-11-19T00:11:30;24.67;;;9.88;;
70545;SDS011;58098;51.680;5.134;2023-11-19T00:13:55;17.60;;;9.27;;
70545;SDS011;58098;51.680;5.134;2023-11-19T00:16:21;30.93;;;10.67;;
70545;SDS011;58098;51.680;5.134;2023-11-19T00:18:46;26.80;;;9.50;;
70545;SDS011;58098;51.680;5.134;2023-11-19T00:21:11;26.23;;;9.43;;
70545;SDS011;58098;51.680;5.134;2023-11-19T00:23:37;27.53;;;9.13;;
70545;SDS011;58098;51.680;5.134;2023-11-19T00:26:02;27.45;;;8.98;;
70545;SDS011;58098;51.680;5.134;2023-11-19T00:28:30;26.92;;;8.70;;
70545;SDS011;58098;51.680;5.134;2023-11-19T00:30:56;31.43;;;8.33;;
70545;SDS011;58098;51.680;5.134;2023-11-19T00:33:21;21.07;;;7.93;;
70545;SDS011;58098;51.680;5.134;2023-11-19T00:35:47;29.27;;;8.20;;
70545;SDS011;58098;51.680;5.134;2023-11-19T00:38:13;24.08;;;7.65;;
70545;SDS011;58098;51.680;5.134;2023-11-19T00:40:38;34.97;;;8.37;;
70545;SDS011;58098;51.680;5.134;2023-11-19T00:43:05;30.63;;;7.88;;
70545;SDS011;58098;51.680;5.134;2023-11-19T00:45:32;29.27;;;7.57;;
70545;SDS011;58098;51.680;5.134;2023-11-19T00:47:57;26.50;;;8.47;;
70545;SDS011;58098;51.680;5.134;2023-11-19T00:50:24;26.40;;;7.55;;
70545;SDS011;58098;51.680;5.134;2023-11-19T00:52:50;29.53;;;8.73;;
70545;SDS011;58098;51.680;5.134;2023-11-19T00:55:15;25.00;;;7.60;;
70545;SDS011;58098;51.680;5.134;2023-11-19T00:57:40;43.43;;;8.00;;
70545;SDS011;58098;51.680;5.134;2023-11-19T01:00:06;33.40;;;6.57;;
70545;SDS011;58098;51.680;5.134;2023-11-19T01:02:52;23.20;;;6.07;;
70545;SDS011;58098;51.680;5.134;2023-11-19T01:05:17;29.70;;;6.70;;
70545;SDS011;58098;51.680;5.134;2023-11-19T01:07:46;29.60;;;6.68;;
70545;SDS011;58098;51.680;5.134;2023-11-19T01:10:12;28.00;;;6.00;;
70545;SDS011;58098;51.680;5.134;2023-11-19T01:12:37;30.47;;;5.90;;
70545;SDS011;58098;51.680;5.134;2023-11-19T01:15:03;22.15;;;5.85;;
70545;SDS011;58098;51.680;5.134;2023-11-19T01:17:30;33.17;;;5.90;;
70545;SDS011;58098;51.680;5.134;2023-11-19T01:19:56;31.90;;;5.50;;
70545;SDS011;58098;51.680;5.134;2023-11-19T01:22:22;33.05;;;6.28;;
70545;SDS011;58098;51.680;5.134;2023-11-19T01:24:48;32.00;;;5.40;;
70545;SDS011;58098;51.680;5.134;2023-11-19T01:27:13;29.80;;;5.10;;
70545;SDS011;58098;51.680;5.134;2023-11-19T01:29:39;28.93;;;6.27;;
70545;SDS011;58098;51.680;5.134;2023-11-19T01:32:04;38.40;;;6.37;;
70545;SDS011;58098;51.680;5.134;2023-11-19T01:34:30;26.42;;;5.30;;
70545;SDS011;58098;51.680;5.134;2023-11-19T01:36:55;40.00;;;5.90;;
70545;SDS011;58098;51.680;5.134;2023-11-19T01:39:21;33.60;;;5.43;;
70545;SDS011;58098;51.680;5.134;2023-11-19T01:41:46;38.93;;;6.10;;
70545;SDS011;58098;51.680;5.134;2023-11-19T01:44:13;30.70;;;5.20;;
70545;SDS011;58098;51.680;5.134;2023-11-19T01:46:40;35.20;;;5.70;;
70545;SDS011;58098;51.680;5.134;2023-11-19T01:49:06;48.10;;;6.68;;
70545;SDS011;58098;51.680;5.134;2023-11-19T01:51:33;31.23;;;5.10;;
70545;SDS011;58098;51.680;5.134;2023-11-19T01:53:59;31.35;;;5.13;;
70545;SDS011;58098;51.680;5.134;2023-11-19T01:56:25;33.83;;;5.70;;
70545;SDS011;58098;51.680;5.134;2023-11-19T01:58:52;35.97;;;5.17;;
70545;SDS011;58098;51.680;5.134;2023-11-19T02:01:19;41.28;;;5.82;;
70545;SDS011;58098;51.680;5.134;2023-11-19T02:03:45;32.13;;;5.13;;
70545;SDS011;58098;51.680;5.134;2023-11-19T02:06:12;34.80;;;5.22;;
70545;SDS011;58098;51.680;5.134;2023-11-19T02:08:38;41.13;;;5.77;;
70545;SDS011;58098;51.680;5.134;2023-11-19T02:11:04;23.35;;;4.63;;
70545;SDS011;58098;51.680;5.134;2023-11-19T02:13:31;43.80;;;6.88;;
70545;SDS011;58098;51.680;5.134;2023-11-19T02:15:57;36.00;;;5.13;;
70545;SDS011;58098;51.680;5.134;2023-11-19T02:18:26;32.10;;;4.90;;
70545;SDS011;58098;51.680;5.134;2023-11-19T02:20:53;39.83;;;6.07;;
70545;SDS011;58098;51.680;5.134;2023-11-19T02:23:26;41.20;;;5.57;;
70545;SDS011;58098;51.680;5.134;2023-11-19T02:25:57;43.65;;;5.70;;
70545;SDS011;58098;51.680;5.134;2023-11-19T02:28:27;41.07;;;5.03;;
70545;SDS011;58098;51.680;5.134;2023-11-19T02:30:52;33.95;;;5.95;;
70545;SDS011;58098;51.680;5.134;2023-11-19T02:33:18;44.03;;;5.73;;
70545;SDS011;58098;51.680;5.134;2023-11-19T02:35:43;31.70;;;5.60;;
70545;SDS011;58098;51.680;5.134;2023-11-19T02:38:09;46.58;;;6.15;;
70545;SDS011;58098;51.680;5.134;2023-11-19T02:40:34;30.60;;;4.97;;
70545;SDS011;58098;51.680;5.134;2023-11-19T02:43:00;33.27;;;5.80;;
70545;SDS011;58098;51.680;5.134;2023-11-19T02:45:25;40.17;;;5.53;;
70545;SDS011;58098;51.680;5.134;2023-11-19T02:47:51;44.15;;;6.55;;
70545;SDS011;58098;51.680;5.134;2023-11-19T02:50:18;39.00;;;5.47;;
70545;SDS011;58098;51.680;5.134;2023-11-19T02:52:50;43.30;;;6.07;;
70545;SDS011;58098;51.680;5.134;2023-11-19T02:55:17;45.25;;;6.35;;
70545;SDS011;58098;51.680;5.134;2023-11-19T02:57:43;38.53;;;5.97;;
70545;SDS011;58098;51.680;5.134;2023-11-19T03:00:20;44.28;;;6.43;;
70545;SDS011;58098;51.680;5.134;2023-11-19T03:02:50;39.05;;;6.05;;
70545;SDS011;58098;51.680;5.134;2023-11-19T03:05:34;39.30;;;5.28;;
70545;SDS011;58098;51.680;5.134;2023-11-19T03:08:00;37.30;;;5.00;;
70545;SDS011;58098;51.680;5.134;2023-11-19T03:10:25;39.37;;;5.50;;
70545;SDS011;58098;51.680;5.134;2023-11-19T03:12:51;40.07;;;6.10;;
70545;SDS011;58098;51.680;5.134;2023-11-19T03:15:16;40.60;;;5.23;;
70545;SDS011;58098;51.680;5.134;2023-11-19T03:17:42;46.60;;;5.87;;
70545;SDS011;58098;51.680;5.134;2023-11-19T03:20:09;38.60;;;5.47;;
70545;SDS011;58098;51.680;5.134;2023-11-19T03:22:39;43.28;;;5.82;;
70545;SDS011;58098;51.680;5.134;2023-11-19T03:25:06;31.90;;;5.22;;
70545;SDS011;58098;51.680;5.134;2023-11-19T03:27:33;34.57;;;5.60;;
70545;SDS011;58098;51.680;5.134;2023-11-19T03:30:00;41.95;;;5.72;;
70545;SDS011;58098;51.680;5.134;2023-11-19T03:32:26;36.78;;;5.13;;
70545;SDS011;58098;51.680;5.134;2023-11-19T03:34:52;33.50;;;5.03;;
70545;SDS011;58098;51.680;5.134;2023-11-19T03:37:17;34.10;;;5.53;;
70545;SDS011;58098;51.680;5.134;2023-11-19T03:39:43;48.37;;;6.30;;
70545;SDS011;58098;51.680;5.134;2023-11-19T03:42:08;52.97;;;6.20;;
70545;SDS011;58098;51.680;5.134;2023-11-19T03:44:33;44.20;;;6.50;;
70545;SDS011;58098;51.680;5.134;2023-11-19T03:46:59;45.07;;;5.60;;
70545;SDS011;58098;51.680;5.134;2023-11-19T03:49:24;39.40;;;6.23;;
70545;SDS011;58098;51.680;5.134;2023-11-19T03:51:49;45.07;;;5.70;;
70545;SDS011;58098;51.680;5.134;2023-11-19T03:54:15;44.83;;;6.30;;
70545;SDS011;58098;51.680;5.134;2023-11-19T03:56:40;52.90;;;7.57;;
70545;SDS011;58098;51.680;5.134;2023-11-19T03:59:05;48.50;;;6.43;;
70545;SDS011;58098;51.680;5.134;2023-11-19T04:01:31;43.70;;;6.97;;
70545;SDS011;58098;51.680;5.134;2023-11-19T04:03:56;47.97;;;7.03;;
70545;SDS011;58098;51.680;5.134;2023-11-19T04:06:21;55.83;;;7.03;;
70545;SDS011;58098;51.680;5.134;2023-11-19T04:08:47;40.57;;;5.43;;
70545;SDS011;58098;51.680;5.134;2023-11-19T04:11:12;47.13;;;6.37;;
70545;SDS011;58098;51.680;5.134;2023-11-19T04:13:37;48.97;;;6.57;;
70545;SDS011;58098;51.680;5.134;2023-11-19T04:16:03;47.50;;;6.20;;
70545;SDS011;58098;51.680;5.134;2023-11-19T04:18:29;58.23;;;6.60;;
70545;SDS011;58098;51.680;5.134;2023-11-19T04:20:54;50.40;;;6.35;;
70545;SDS011;58098;51.680;5.134;2023-11-19T04:23:20;44.83;;;7.17;;
70545;SDS011;58098;51.680;5.134;2023-11-19T04:25:45;34.47;;;4.90;;
70545;SDS011;58098;51.680;5.134;2023-11-19T04:28:11;40.57;;;5.50;;
70545;SDS011;58098;51.680;5.134;2023-11-19T04:30:36;49.20;;;6.13;;
70545;SDS011;58098;51.680;5.134;2023-11-19T04:33:02;45.67;;;6.55;;
70545;SDS011;58098;51.680;5.134;2023-11-19T04:35:28;39.70;;;6.03;;
70545;SDS011;58098;51.680;5.134;2023-11-19T04:37:53;42.17;;;5.93;;
70545;SDS011;58098;51.680;5.134;2023-11-19T04:40:18;40.40;;;6.60;;
70545;SDS011;58098;51.680;5.134;2023-11-19T04:42:44;47.47;;;5.93;;
70545;SDS011;58098;51.680;5.134;2023-11-19T04:45:10;44.20;;;5.70;;
70545;SDS011;58098;51.680;5.134;2023-11-19T04:47:36;48.38;;;6.40;;
70545;SDS011;58098;51.680;5.134;2023-11-19T04:50:01;43.90;;;6.18;;
70545;SDS011;58098;51.680;5.134;2023-11-19T04:52:27;51.43;;;6.27;;
70545;SDS011;58098;51.680;5.134;2023-11-19T04:54:53;50.25;;;6.38;;
70545;SDS011;58098;51.680;5.134;2023-11-19T04:57:18;45.57;;;6.40;;
70545;SDS011;58098;51.680;5.134;2023-11-19T04:59:43;38.57;;;5.47;;
70545;SDS011;58098;51.680;5.134;2023-11-19T05:02:09;47.97;;;5.73;;
70545;SDS011;58098;51.680;5.134;2023-11-19T05:04:34;43.73;;;6.27;;
70545;SDS011;58098;51.680;5.134;2023-11-19T05:07:00;58.40;;;7.22;;
70545;SDS011;58098;51.680;5.134;2023-11-19T05:09:25;35.83;;;6.30;;
70545;SDS011;58098;51.680;5.134;2023-11-19T05:11:51;40.83;;;5.73;;
70545;SDS011;58098;51.680;5.134;2023-11-19T05:14:16;43.13;;;6.75;;
70545;SDS011;58098;51.680;5.134;2023-11-19T05:16:44;41.33;;;5.93;;
70545;SDS011;58098;51.680;5.134;2023-11-19T05:19:10;58.33;;;6.53;;
70545;SDS011;58098;51.680;5.134;2023-11-19T05:21:35;48.73;;;6.23;;
70545;SDS011;58098;51.680;5.134;2023-11-19T05:24:01;37.43;;;5.40;;
70545;SDS011;58098;51.680;5.134;2023-11-19T05:26:30;39.00;;;6.13;;
70545;SDS011;58098;51.680;5.134;2023-11-19T05:28:56;48.03;;;6.95;;
70545;SDS011;58098;51.680;5.134;2023-11-19T05:31:21;49.83;;;6.27;;
70545;SDS011;58098;51.680;5.134;2023-11-19T05:33:47;35.70;;;5.37;;
70545;SDS011;58098;51.680;5.134;2023-11-19T05:36:12;31.10;;;6.30;;
70545;SDS011;58098;51.680;5.134;2023-11-19T05:38:38;49.90;;;5.57;;
70545;SDS011;58098;51.680;5.134;2023-11-19T05:41:04;45.63;;;5.93;;
70545;SDS011;58098;51.680;5.134;2023-11-19T05:43:30;38.83;;;5.95;;
70545;SDS011;58098;51.680;5.134;2023-11-19T05:45:55;50.33;;;6.65;;
70545;SDS011;58098;51.680;5.134;2023-11-19T05:48:21;47.47;;;6.40;;
70545;SDS011;58098;51.680;5.134;2023-11-19T05:50:46;49.53;;;6.13;;
70545;SDS011;58098;51.680;5.134;2023-11-19T05:53:12;58.80;;;7.32;;
70545;SDS011;58098;51.680;5.134;2023-11-19T05:55:39;52.17;;;6.43;;
70545;SDS011;58098;51.680;5.134;2023-11-19T05:58:11;44.20;;;6.10;;
70545;SDS011;58098;51.680;5.134;2023-11-19T06:00:40;52.50;;;7.75;;
70545;SDS011;58098;51.680;5.134;2023-11-19T06:03:07;44.97;;;6.05;;
70545;SDS011;58098;51.680;5.134;2023-11-19T06:05:32;50.10;;;6.97;;
70545;SDS011;58098;51.680;5.134;2023-11-19T06:07:58;43.73;;;5.93;;
70545;SDS011;58098;51.680;5.134;2023-11-19T06:10:24;49.83;;;6.80;;
70545;SDS011;58098;51.680;5.134;2023-11-19T06:12:55;46.25;;;6.22;;
70545;SDS011;58098;51.680;5.134;2023-11-19T06:15:24;44.47;;;5.65;;
70545;SDS011;58098;51.680;5.134;2023-11-19T06:17:49;48.83;;;5.87;;
70545;SDS011;58098;51.680;5.134;2023-11-19T06:20:15;50.03;;;7.72;;
70545;SDS011;58098;51.680;5.134;2023-11-19T06:22:42;50.90;;;6.93;;
70545;SDS011;58098;51.680;5.134;2023-11-19T06:25:09;40.80;;;5.97;;
70545;SDS011;58098;51.680;5.134;2023-11-19T06:27:34;50.00;;;6.20;;
70545;SDS011;58098;51.680;5.134;2023-11-19T06:30:00;46.90;;;6.73;;
70545;SDS011;58098;51.680;5.134;2023-11-19T06:32:26;55.25;;;7.32;;
70545;SDS011;58098;51.680;5.134;2023-11-19T06:34:51;53.67;;;6.90;;
70545;SDS011;58098;51.680;5.134;2023-11-19T06:37:16;50.03;;;6.50;;
70545;SDS011;58098;51.680;5.134;2023-11-19T06:39:41;53.60;;;6.13;;
70545;SDS011;58098;51.680;5.134;2023-11-19T06:42:07;46.67;;;6.67;;
70545;SDS011;58098;51.680;5.134;2023-11-19T06:44:32;58.50;;;6.18;;
70545;SDS011;58098;51.680;5.134;2023-11-19T06:46:58;44.53;;;6.33;;
70545;SDS011;58098;51.680;5.134;2023-11-19T06:49:23;46.33;;;7.17;;
70545;SDS011;58098;51.680;5.134;2023-11-19T06:51:49;41.17;;;6.05;;
70545;SDS011;58098;51.680;5.134;2023-11-19T06:54:15;37.73;;;5.33;;
70545;SDS011;58098;51.680;5.134;2023-11-19T06:56:41;54.65;;;6.57;;
70545;SDS011;58098;51.680;5.134;2023-11-19T06:59:06;47.90;;;6.10;;
70545;SDS011;58098;51.680;5.134;2023-11-19T07:01:35;43.13;;;5.78;;
70545;SDS011;58098;51.680;5.134;2023-11-19T07:04:01;47.13;;;7.07;;
70545;SDS011;58098;51.680;5.134;2023-11-19T07:06:33;56.75;;;7.18;;
70545;SDS011;58098;51.680;5.134;2023-11-19T07:08:58;35.10;;;5.93;;
70545;SDS011;58098;51.680;5.134;2023-11-19T07:11:23;53.33;;;6.32;;
70545;SDS011;58098;51.680;5.134;2023-11-19T07:13:49;48.90;;;6.23;;
70545;SDS011;58098;51.680;5.134;2023-11-19T07:16:15;58.47;;;6.97;;
70545;SDS011;58098;51.680;5.134;2023-11-19T07:18:40;47.20;;;5.97;;
70545;SDS011;58098;51.680;5.134;2023-11-19T07:21:07;43.43;;;5.80;;
70545;SDS011;58098;51.680;5.134;2023-11-19T07:23:35;43.53;;;5.65;;
70545;SDS011;58098;51.680;5.134;2023-11-19T07:26:00;48.30;;;5.70;;
70545;SDS011;58098;51.680;5.134;2023-11-19T07:28:26;52.17;;;5.53;;
70545;SDS011;58098;51.680;5.134;2023-11-19T07:30:53;57.55;;;7.22;;
70545;SDS011;58098;51.680;5.134;2023-11-19T07:33:21;50.85;;;7.03;;
70545;SDS011;58098;51.680;5.134;2023-11-19T07:35:46;44.63;;;6.93;;
70545;SDS011;58098;51.680;5.134;2023-11-19T07:38:11;46.63;;;6.13;;
70545;SDS011;58098;51.680;5.134;2023-11-19T07:40:37;42.23;;;6.37;;
70545;SDS011;58098;51.680;5.134;2023-11-19T07:43:02;50.70;;;6.20;;
70545;SDS011;58098;51.680;5.134;2023-11-19T07:45:27;51.33;;;5.90;;
70545;SDS011;58098;51.680;5.134;2023-11-19T07:47:53;48.77;;;6.77;;
70545;SDS011;58098;51.680;5.134;2023-11-19T07:50:19;45.00;;;6.23;;
70545;SDS011;58098;51.680;5.134;2023-11-19T07:52:45;46.75;;;6.35;;
70545;SDS011;58098;51.680;5.134;2023-11-19T07:55:10;46.47;;;5.83;;
70545;SDS011;58098;51.680;5.134;2023-11-19T07:57:36;43.90;;;6.27;;
70545;SDS011;58098;51.680;5.134;2023-11-19T08:00:01;58.15;;;8.02;;
70545;SDS011;58098;51.680;5.134;2023-11-19T08:02:28;47.45;;;6.25;;
70545;SDS011;58098;51.680;5.134;2023-11-19T08:04:53;48.33;;;6.27;;
70545;SDS011;58098;51.680;5.134;2023-11-19T08:07:20;44.55;;;6.82;;
70545;SDS011;58098;51.680;5.134;2023-11-19T08:09:45;43.90;;;6.70;;
70545;SDS011;58098;51.680;5.134;2023-11-19T08:12:11;50.00;;;6.50;;
70545;SDS011;58098;51.680;5.134;2023-11-19T08:14:39;52.95;;;6.47;;
70545;SDS011;58098;51.680;5.134;2023-11-19T08:17:04;49.33;;;6.80;;
70545;SDS011;58098;51.680;5.134;2023-11-19T08:19:29;46.87;;;7.30;;
70545;SDS011;58098;51.680;5.134;2023-11-19T08:21:54;46.90;;;7.17;;
70545;SDS011;58098;51.680;5.134;2023-11-19T08:24:20;49.23;;;6.80;;
70545;SDS011;58098;51.680;5.134;2023-11-19T08:26:45;50.80;;;7.00;;
70545;SDS011;58098;51.680;5.134;2023-11-19T08:29:10;43.10;;;6.33;;
70545;SDS011;58098;51.680;5.134;2023-11-19T08:31:36;38.57;;;6.67;;
70545;SDS011;58098;51.680;5.134;2023-11-19T08:34:01;43.37;;;6.33;;
70545;SDS011;58098;51.680;5.134;2023-11-19T08:36:26;43.37;;;6.00;;
70545;SDS011;58098;51.680;5.134;2023-11-19T08:38:53;39.33;;;5.57;;
70545;SDS011;58098;51.680;5.134;2023-11-19T08:41:18;46.73;;;6.57;;
70545;SDS011;58098;51.680;5.134;2023-11-19T08:43:44;44.33;;;6.75;;
70545;SDS011;58098;51.680;5.134;2023-11-19T08:46:10;40.53;;;6.33;;
70545;SDS011;58098;51.680;5.134;2023-11-19T08:48:36;38.45;;;5.28;;
70545;SDS011;58098;51.680;5.134;2023-11-19T08:51:02;45.05;;;6.15;;
70545;SDS011;58098;51.680;5.134;2023-11-19T08:53:27;44.67;;;5.60;;
70545;SDS011;58098;51.680;5.134;2023-11-19T08:55:53;42.33;;;5.53;;
70545;SDS011;58098;51.680;5.134;2023-11-19T08:58:18;44.90;;;6.40;;
70545;SDS011;58098;51.680;5.134;2023-11-19T09:00:43;45.05;;;6.65;;
70545;SDS011;58098;51.680;5.134;2023-11-19T09:03:09;36.17;;;6.47;;
70545;SDS011;58098;51.680;5.134;2023-11-19T09:05:34;38.00;;;5.63;;
70545;SDS011;58098;51.680;5.134;2023-11-19T09:08:00;39.70;;;6.37;;
70545;SDS011;58098;51.680;5.134;2023-11-19T09:10:25;41.87;;;5.53;;
70545;SDS011;58098;51.680;5.134;2023-11-19T09:12:52;38.45;;;6.25;;
70545;SDS011;58098;51.680;5.134;2023-11-19T09:15:17;46.30;;;6.67;;
70545;SDS011;58098;51.680;5.134;2023-11-19T09:17:42;43.47;;;6.13;;
70545;SDS011;58098;51.680;5.134;2023-11-19T09:20:08;53.90;;;7.37;;
70545;SDS011;58098;51.680;5.134;2023-11-19T09:22:36;44.15;;;6.30;;
70545;SDS011;58098;51.680;5.134;2023-11-19T09:25:02;40.87;;;6.10;;
70545;SDS011;58098;51.680;5.134;2023-11-19T09:27:27;36.47;;;5.38;;
70545;SDS011;58098;51.680;5.134;2023-11-19T09:29:54;37.80;;;6.30;;
70545;SDS011;58098;51.680;5.134;2023-11-19T09:32:22;50.30;;;6.40;;
70545;SDS011;58098;51.680;5.134;2023-11-19T09:34:48;44.27;;;5.87;;
70545;SDS011;58098;51.680;5.134;2023-11-19T09:37:13;46.33;;;7.03;;
70545;SDS011;58098;51.680;5.134;2023-11-19T09:39:38;50.43;;;6.30;;
70545;SDS011;58098;51.680;5.134;2023-11-19T09:42:04;41.00;;;6.03;;
70545;SDS011;58098;51.680;5.134;2023-11-19T09:44:30;43.72;;;6.63;;
70545;SDS011;58098;51.680;5.134;2023-11-19T09:46:56;38.77;;;6.60;;
70545;SDS011;58098;51.680;5.134;2023-11-19T09:49:24;46.63;;;6.28;;
70545;SDS011;58098;51.680;5.134;2023-11-19T09:51:51;41.33;;;6.80;;
70545;SDS011;58098;51.680;5.134;2023-11-19T09:54:17;45.47;;;6.10;;
70545;SDS011;58098;51.680;5.134;2023-11-19T09:56:42;45.88;;;6.38;;
70545;SDS011;58098;51.680;5.134;2023-11-19T09:59:09;35.63;;;5.27;;
70545;SDS011;58098;51.680;5.134;2023-11-19T10:01:38;45.00;;;6.40;;
70545;SDS011;58098;51.680;5.134;2023-11-19T10:04:03;40.55;;;5.40;;
70545;SDS011;58098;51.680;5.134;2023-11-19T10:06:31;54.22;;;6.80;;
70545;SDS011;58098;51.680;5.134;2023-11-19T10:08:56;34.07;;;5.67;;
70545;SDS011;58098;51.680;5.134;2023-11-19T10:11:22;39.50;;;6.03;;
70545;SDS011;58098;51.680;5.134;2023-11-19T10:13:47;31.15;;;5.20;;
70545;SDS011;58098;51.680;5.134;2023-11-19T10:16:14;44.97;;;6.77;;
70545;SDS011;58098;51.680;5.134;2023-11-19T10:18:46;36.17;;;5.78;;
70545;SDS011;58098;51.680;5.134;2023-11-19T10:21:12;37.17;;;5.80;;
70545;SDS011;58098;51.680;5.134;2023-11-19T10:23:48;43.10;;;6.47;;
70545;SDS011;58098;51.680;5.134;2023-11-19T10:26:18;31.30;;;5.53;;
70545;SDS011;58098;51.680;5.134;2023-11-19T10:28:47;37.67;;;6.17;;
70545;SDS011;58098;51.680;5.134;2023-11-19T10:31:16;43.45;;;6.50;;
70545;SDS011;58098;51.680;5.134;2023-11-19T10:33:43;32.80;;;5.25;;
70545;SDS011;58098;51.680;5.134;2023-11-19T10:36:10;41.00;;;6.03;;
70545;SDS011;58098;51.680;5.134;2023-11-19T10:38:37;38.37;;;5.50;;
70545;SDS011;58098;51.680;5.134;2023-11-19T10:41:03;35.95;;;5.20;;
70545;SDS011;58098;51.680;5.134;2023-11-19T10:43:30;41.25;;;6.03;;
70545;SDS011;58098;51.680;5.134;2023-11-19T10:46:08;44.05;;;6.82;;
70545;SDS011;58098;51.680;5.134;2023-11-19T10:48:35;36.10;;;5.40;;
70545;SDS011;58098;51.680;5.134;2023-11-19T10:51:01;41.77;;;6.33;;
70545;SDS011;58098;51.680;5.134;2023-11-19T10:53:32;45.03;;;5.75;;
70545;SDS011;58098;51.680;5.134;2023-11-19T10:56:00;42.10;;;6.05;;
70545;SDS011;58098;51.680;5.134;2023-11-19T10:58:29;35.57;;;5.57;;
70545;SDS011;58098;51.680;5.134;2023-11-19T11:00:57;34.85;;;5.55;;
70545;SDS011;58098;51.680;5.134;2023-11-19T11:03:31;36.95;;;5.30;;
70545;SDS011;58098;51.680;5.134;2023-11-19T11:06:04;46.33;;;6.18;;
70545;SDS011;58098;51.680;5.134;2023-11-19T11:08:30;48.78;;;6.60;;
70545;SDS011;58098;51.680;5.134;2023-11-19T11:10:56;42.17;;;5.53;;
70545;SDS011;58098;51.680;5.134;2023-11-19T11:13:26;39.60;;;6.28;;
70545;SDS011;58098;51.680;5.134;2023-11-19T11:15:55;37.93;;;4.93;;
70545;SDS011;58098;51.680;5.134;2023-11-19T11:18:23;32.55;;;5.35;;
70545;SDS011;58098;51.680;5.134;2023-11-19T11:21:08;28.05;;;5.28;;
70545;SDS011;58098;51.680;5.134;2023-11-19T11:26:21;30.42;;;5.15;;
70545;SDS011;58098;51.680;5.134;2023-11-19T11:29:14;22.83;;;3.70;;
70545;SDS011;58098;51.680;5.134;2023-11-19T11:34:49;30.35;;;4.60;;
70545;SDS011;58098;51.680;5.134;2023-11-19T11:40:04;21.45;;;4.30;;
70545;SDS011;58098;51.680;5.134;2023-11-19T11:42:35;24.63;;;3.63;;
70545;SDS011;58098;51.680;5.134;2023-11-19T11:50:10;21.75;;;4.22;;
70545;SDS011;58098;51.680;5.134;2023-11-19T11:56:08;27.13;;;4.73;;
70545;SDS011;58098;51.680;5.134;2023-11-19T11:58:18;30.80;;;4.57;;
70545;SDS011;58098;51.680;5.134;2023-11-19T12:00:43;33.30;;;5.90;;
70545;SDS011;58098;51.680;5.134;2023-11-19T12:03:11;32.55;;;4.90;;
70545;SDS011;58098;51.680;5.134;2023-11-19T12:05:44;38.37;;;6.00;;
70545;SDS011;58098;51.680;5.134;2023-11-19T12:08:10;39.42;;;5.40;;
70545;SDS011;58098;51.680;5.134;2023-11-19T12:13:15;33.30;;;5.10;;
70545;SDS011;58098;51.680;5.134;2023-11-19T12:18:23;36.92;;;6.38;;
70545;SDS011;58098;51.680;5.134;2023-11-19T12:20:49;33.45;;;4.75;;
70545;SDS011;58098;51.680;5.134;2023-11-19T12:23:15;36.83;;;5.73;;
70545;SDS011;58098;51.680;5.134;2023-11-19T12:25:40;32.27;;;5.57;;
70545;SDS011;58098;51.680;5.134;2023-11-19T12:28:11;34.20;;;4.88;;
70545;SDS011;58098;51.680;5.134;2023-11-19T12:30:37;35.80;;;5.38;;
70545;SDS011;58098;51.680;5.134;2023-11-19T12:33:07;32.60;;;5.80;;
70545;SDS011;58098;51.680;5.134;2023-11-19T12:35:39;30.73;;;4.70;;
70545;SDS011;58098;51.680;5.134;2023-11-19T12:38:05;27.33;;;5.17;;
70545;SDS011;58098;51.680;5.134;2023-11-19T12:40:30;39.15;;;6.00;;
70545;SDS011;58098;51.680;5.134;2023-11-19T12:42:56;32.67;;;5.30;;
70545;SDS011;58098;51.680;5.134;2023-11-19T12:45:22;32.40;;;5.00;;
70545;SDS011;58098;51.680;5.134;2023-11-19T12:47:48;27.25;;;5.07;;
70545;SDS011;58098;51.680;5.134;2023-11-19T12:50:14;39.42;;;5.97;;
70545;SDS011;58098;51.680;5.134;2023-11-19T12:52:42;41.63;;;5.80;;
70545;SDS011;58098;51.680;5.134;2023-11-19T12:57:55;43.47;;;5.85;;
70545;SDS011;58098;51.680;5.134;2023-11-19T13:00:22;32.33;;;4.97;;
70545;SDS011;58098;51.680;5.134;2023-11-19T13:08:00;39.17;;;5.93;;
70545;SDS011;58098;51.680;5.134;2023-11-19T13:10:50;35.88;;;5.70;;
70545;SDS011;58098;51.680;5.134;2023-11-19T13:13:17;33.47;;;5.18;;
70545;SDS011;58098;51.680;5.134;2023-11-19T13:15:42;28.10;;;4.63;;
70545;SDS011;58098;51.680;5.134;2023-11-19T13:18:11;28.27;;;4.90;;
70545;SDS011;58098;51.680;5.134;2023-11-19T13:20:36;41.50;;;5.95;;
70545;SDS011;58098;51.680;5.134;2023-11-19T13:23:03;26.27;;;4.80;;
70545;SDS011;58098;51.680;5.134;2023-11-19T13:25:29;29.30;;;4.97;;
70545;SDS011;58098;51.680;5.134;2023-11-19T13:27:55;37.20;;;6.03;;
70545;SDS011;58098;51.680;5.134;2023-11-19T13:30:21;32.93;;;5.27;;
70545;SDS011;58098;51.680;5.134;2023-11-19T13:32:48;36.25;;;5.47;;
70545;SDS011;58098;51.680;5.134;2023-11-19T13:35:14;33.63;;;5.60;;
70545;SDS011;58098;51.680;5.134;2023-11-19T13:37:40;33.45;;;5.43;;
70545;SDS011;58098;51.680;5.134;2023-11-19T13:40:09;34.83;;;5.33;;
70545;SDS011;58098;51.680;5.134;2023-11-19T13:42:38;31.33;;;5.53;;
70545;SDS011;58098;51.680;5.134;2023-11-19T13:45:10;26.63;;;4.53;;
70545;SDS011;58098;51.680;5.134;2023-11-19T13:47:41;28.63;;;4.95;;
70545;SDS011;58098;51.680;5.134;2023-11-19T13:50:08;30.17;;;4.63;;
70545;SDS011;58098;51.680;5.134;2023-11-19T13:52:36;32.80;;;5.47;;
70545;SDS011;58098;51.680;5.134;2023-11-19T13:55:06;27.97;;;5.20;;
70545;SDS011;58098;51.680;5.134;2023-11-19T13:57:33;32.22;;;5.22;;
70545;SDS011;58098;51.680;5.134;2023-11-19T13:59:59;36.50;;;4.88;;
70545;SDS011;58098;51.680;5.134;2023-11-19T14:02:25;25.40;;;4.50;;
70545;SDS011;58098;51.680;5.134;2023-11-19T14:04:50;30.73;;;4.97;;
70545;SDS011;58098;51.680;5.134;2023-11-19T14:07:15;30.87;;;5.93;;
70545;SDS011;58098;51.680;5.134;2023-11-19T14:09:43;35.70;;;5.27;;
70545;SDS011;58098;51.680;5.134;2023-11-19T14:12:10;24.45;;;5.78;;
70545;SDS011;58098;51.680;5.134;2023-11-19T14:14:37;36.60;;;5.50;;
70545;SDS011;58098;51.680;5.134;2023-11-19T14:17:04;33.00;;;5.93;;
70545;SDS011;58098;51.680;5.134;2023-11-19T14:19:30;29.35;;;4.60;;
70545;SDS011;58098;51.680;5.134;2023-11-19T14:21:55;28.87;;;4.93;;
70545;SDS011;58098;51.680;5.134;2023-11-19T14:24:20;34.40;;;5.43;;
70545;SDS011;58098;51.680;5.134;2023-11-19T14:26:47;30.02;;;5.18;;
70545;SDS011;58098;51.680;5.134;2023-11-19T14:29:13;28.45;;;5.28;;
70545;SDS011;58098;51.680;5.134;2023-11-19T14:31:39;25.67;;;4.03;;
70545;SDS011;58098;51.680;5.134;2023-11-19T14:34:05;29.85;;;4.88;;
70545;SDS011;58098;51.680;5.134;2023-11-19T14:36:30;28.30;;;4.80;;
70545;SDS011;58098;51.680;5.134;2023-11-19T14:38:55;28.93;;;4.93;;
70545;SDS011;58098;51.680;5.134;2023-11-19T14:41:20;30.33;;;4.93;;
70545;SDS011;58098;51.680;5.134;2023-11-19T14:43:46;27.17;;;4.20;;
70545;SDS011;58098;51.680;5.134;2023-11-19T14:46:12;31.23;;;5.13;;
70545;SDS011;58098;51.680;5.134;2023-11-19T14:48:37;32.87;;;5.20;;
70545;SDS011;58098;51.680;5.134;2023-11-19T14:51:02;28.60;;;5.00;;
70545;SDS011;58098;51.680;5.134;2023-11-19T14:53:28;28.55;;;4.72;;
70545;SDS011;58098;51.680;5.134;2023-11-19T14:55:53;30.10;;;5.00;;
70545;SDS011;58098;51.680;5.134;2023-11-19T14:58:19;26.17;;;4.37;;
70545;SDS011;58098;51.680;5.134;2023-11-19T15:00:45;33.35;;;5.03;;